Time;durP1;ratioP1;P1;durP2;ratioP2;P2;SDS_P1;SDS_P2;PMS_P1;PMS_P2;Temp;Humidity;BMP_temperature;BMP_pressure;BME280_temperature;BME280_humidity;BME280_pressure;Samples;Min_cycle;Max_cycle;Signal;HPM_P1;HPM_P2
2022/05/07 00:03:46;;;;;;;;;;;;;;;21.96;41.70;96111.69;10356494;28;1973;-52
2022/05/07 00:08:46;;;;;;;;;;;;;;;21.92;41.73;96111.47;10332288;28;1929;-51
2022/05/07 00:13:47;;;;;;;;;;;;;;;21.94;41.63;96111.97;10352430;28;1796;-52
2022/05/07 00:18:47;;;;;;;;;;;;;;;21.94;41.38;96111.19;10338680;28;1745;-50
2022/05/07 00:23:47;;;;;;;;;;;;;;;21.93;41.64;96107.75;10337160;28;2415;-50
2022/05/07 00:28:48;;;;;;;;;;;;;;;21.90;41.56;96105.66;10335607;28;2307;-49
2022/05/07 00:33:49;;;;;;;;;;;;;;;21.88;41.65;96097.22;10338703;28;1785;-53
2022/05/07 00:38:49;;;;;;;;;;;;;;;21.88;41.54;96094.59;10331286;28;1943;-52
2022/05/07 00:43:49;;;;;;;;;;;;;;;21.89;41.59;96090.88;10353046;28;1977;-51
2022/05/07 00:48:50;;;;;;;;;;;;;;;21.88;41.74;96090.09;10344758;28;1844;-49
2022/05/07 00:53:51;;;;;;;;;;;;;;;21.90;41.53;96086.41;10335653;28;1874;-52
2022/05/07 00:58:51;;;;;;;;;;;;;;;21.89;41.38;96077.69;10324900;28;1951;-51
2022/05/07 01:03:51;;;;;;;;;;;;;;;21.91;41.04;96069.50;10347728;28;1998;-48
2022/05/07 01:08:52;;;;;;;;;;;;;;;21.90;41.18;96074.00;10348879;28;1978;-53
2022/05/07 01:13:53;;;;;;;;;;;;;;;21.92;41.14;96069.22;10350648;28;1924;-49
2022/05/07 01:19:01;;;;;;;;;;;;;;;21.93;41.01;96068.16;10336804;28;1915;-49
2022/05/07 01:24:03;;;;;;;;;;;;;;;21.92;41.15;96066.59;10329715;28;1968;-49
2022/05/07 01:29:03;;;;;;;;;;;;;;;21.92;40.92;96066.59;10352799;28;2056;-50
2022/05/07 01:34:10;;;;;;;;;;;;;;;21.94;40.96;96053.91;10331876;28;1955;-51
2022/05/07 01:39:11;;;;;;;;;;;;;;;21.95;40.94;96059.97;10351455;28;1892;-51
2022/05/07 01:44:11;;;;;;;;;;;;;;;21.93;41.05;96057.59;10347322;28;1975;-49
2022/05/07 01:49:12;;;;;;;;;;;;;;;21.93;40.98;96052.31;10353677;28;1955;-48
2022/05/07 01:54:12;;;;;;;;;;;;;;;21.92;41.17;96056.03;10350760;28;2050;-51
2022/05/07 01:59:12;;;;;;;;;;;;;;;21.92;40.94;96055.25;10355974;28;1971;-53
2022/05/07 02:04:13;;;;;;;;;;;;;;;21.90;40.88;96060.00;10351551;28;2094;-51
2022/05/07 02:09:13;;;;;;;;;;;;;;;21.90;40.88;96052.88;10341199;28;1848;-48
2022/05/07 02:14:14;;;;;;;;;;;;;;;21.87;41.04;96056.06;10348284;28;1924;-50
2022/05/07 02:19:14;;;;;;;;;;;;;;;21.88;41.12;96047.09;10347601;28;1941;-50
2022/05/07 02:24:14;;;;;;;;;;;;;;;21.87;41.02;96056.06;10348537;28;1923;-49
2022/05/07 02:29:15;;;;;;;;;;;;;;;21.85;41.17;96047.63;10342440;28;1988;-48
2022/05/07 02:34:15;;;;;;;;;;;;;;;21.84;40.92;96048.69;10342226;28;1908;-50
2022/05/07 02:39:15;;;;;;;;;;;;;;;21.85;41.14;96047.63;10356640;28;1866;-48
2022/05/07 02:44:16;;;;;;;;;;;;;;;21.85;41.02;96045.00;10359174;28;1983;-48
2022/05/07 02:49:16;;;;;;;;;;;;;;;21.84;40.93;96046.84;10345451;28;1915;-52
2022/05/07 02:54:16;;;;;;;;;;;;;;;21.86;40.95;96049.22;10332931;28;1920;-51
2022/05/07 02:59:16;;;;;;;;;;;;;;;21.85;41.09;96043.13;10343592;28;1893;-50
2022/05/07 03:04:17;;;;;;;;;;;;;;;21.88;40.60;96044.44;10337081;28;1973;-52
2022/05/07 03:09:17;;;;;;;;;;;;;;;21.90;40.80;96039.69;10353003;28;1855;-50
2022/05/07 03:14:18;;;;;;;;;;;;;;;21.89;40.71;96046.00;10335127;28;1793;-51
2022/05/07 03:19:19;;;;;;;;;;;;;;;21.93;40.46;96043.63;10342944;28;1970;-52
2022/05/07 03:24:19;;;;;;;;;;;;;;;21.92;40.70;96045.47;10347212;28;1968;-51
2022/05/07 03:29:19;;;;;;;;;;;;;;;21.91;40.54;96038.59;10355676;28;1990;-49
2022/05/07 03:34:20;;;;;;;;;;;;;;;21.92;40.39;96052.59;10359415;28;2030;-49
2022/05/07 03:39:20;;;;;;;;;;;;;;;21.92;40.58;96042.03;10358459;28;1966;-54
2022/05/07 03:44:20;;;;;;;;;;;;;;;21.94;40.36;96045.19;10359569;28;2021;-49
2022/05/07 03:49:21;;;;;;;;;;;;;;;21.88;40.60;96045.22;10355969;28;1933;-49
2022/05/07 03:54:21;;;;;;;;;;;;;;;21.90;40.81;96041.53;10356289;28;1927;-51
2022/05/07 03:59:22;;;;;;;;;;;;;;;21.90;40.38;96042.31;10358283;28;2032;-49
2022/05/07 04:04:22;;;;;;;;;;;;;;;21.89;40.48;96040.72;10355900;28;1970;-51
2022/05/07 04:09:22;;;;;;;;;;;;;;;21.89;40.60;96046.00;10351034;28;2027;-54
2022/05/07 04:14:23;;;;;;;;;;;;;;;21.88;40.44;96045.22;10354593;28;1963;-52
2022/05/07 04:19:24;;;;;;;;;;;;;;;21.88;40.45;96048.94;10346695;28;1946;-49
2022/05/07 04:24:25;;;;;;;;;;;;;;;21.88;40.76;96047.09;10356225;28;1974;-50
2022/05/07 04:29:25;;;;;;;;;;;;;;;21.88;40.61;96046.28;10336565;28;1948;-51
2022/05/07 04:34:28;;;;;;;;;;;;;;;21.90;40.78;96044.97;10347831;28;1980;-48
2022/05/07 04:39:29;;;;;;;;;;;;;;;21.88;40.40;96053.13;10340718;28;1917;-50
2022/05/07 04:44:30;;;;;;;;;;;;;;;21.90;40.46;96057.38;10353806;28;1999;-51
2022/05/07 04:49:31;;;;;;;;;;;;;;;21.91;40.66;96056.31;10356615;28;1951;-49
2022/05/07 04:54:32;;;;;;;;;;;;;;;21.88;40.76;96055.00;10341104;28;2010;-52
2022/05/07 04:59:32;;;;;;;;;;;;;;;21.89;40.80;96061.84;10350357;28;1912;-50
2022/05/07 05:04:32;;;;;;;;;;;;;;;21.88;40.54;96055.00;10358206;28;1977;-51
2022/05/07 05:09:33;;;;;;;;;;;;;;;21.88;40.65;96060.28;10350807;28;1868;-52
2022/05/07 05:19:52;;;;;;;;;;;;;;;21.85;40.68;96068.75;10352242;28;1861;-52
2022/05/07 05:24:52;;;;;;;;;;;;;;;21.84;40.68;96069.81;10354445;28;1910;-52
2022/05/07 05:29:53;;;;;;;;;;;;;;;21.83;40.75;96076.13;10333957;28;1956;-49
2022/05/07 05:34:54;;;;;;;;;;;;;;;21.84;40.69;96081.13;10352351;28;1972;-51
2022/05/07 05:39:54;;;;;;;;;;;;;;;21.84;40.56;96081.13;10334778;28;2004;-51
2022/05/07 05:44:54;;;;;;;;;;;;;;;21.85;40.67;96082.72;10335933;28;1941;-51
2022/05/07 05:49:55;;;;;;;;;;;;;;;21.85;40.79;96093.28;10341345;28;1932;-53
2022/05/07 05:54:55;;;;;;;;;;;;;;;21.84;40.53;96083.78;10336269;28;1983;-51
2022/05/07 05:59:55;;;;;;;;;;;;;;;21.87;40.59;96085.09;10354120;28;1987;-52
2022/05/07 06:04:56;;;;;;;;;;;;;;;21.85;40.69;96087.22;10335574;28;1962;-50
2022/05/07 06:09:57;;;;;;;;;;;;;;;21.88;40.58;96086.69;10338651;28;1960;-53
2022/05/07 06:14:57;;;;;;;;;;;;;;;21.87;40.61;96090.38;10337525;28;2024;-51
2022/05/07 06:19:58;;;;;;;;;;;;;;;21.86;40.66;96091.44;10338888;28;3787;-52
2022/05/07 06:30:17;;;;;;;;;;;;;;;21.85;40.41;96085.38;10348926;28;2183;-53
2022/05/07 06:35:17;;;;;;;;;;;;;;;21.83;40.75;96087.50;10330032;28;1987;-50
2022/05/07 06:40:17;;;;;;;;;;;;;;;21.86;40.48;96091.44;10343126;28;1911;-50
2022/05/07 06:45:18;;;;;;;;;;;;;;;21.83;40.68;96087.50;10333827;28;1983;-51
2022/05/07 06:50:18;;;;;;;;;;;;;;;21.85;40.64;96092.50;10335053;28;1858;-49
2022/05/07 06:55:19;;;;;;;;;;;;;;;21.84;41.03;96090.94;10340900;28;1984;-51
2022/05/07 07:00:19;;;;;;;;;;;;;;;21.84;41.32;96090.94;10356915;28;1898;-50
2022/05/07 07:05:21;;;;;;;;;;;;;;;21.88;41.50;96093.81;10372271;28;1914;-53
2022/05/07 07:10:22;;;;;;;;;;;;;;;21.86;41.35;96102.00;10374759;28;1773;-52
2022/05/07 07:15:23;;;;;;;;;;;;;;;21.87;41.65;96093.00;10358392;28;1702;-52
2022/05/07 07:20:24;;;;;;;;;;;;;;;21.85;41.63;96097.75;10341314;28;1775;-54
2022/05/07 07:25:25;;;;;;;;;;;;;;;21.85;41.66;96095.13;10337894;28;1914;-51
2022/05/07 07:30:25;;;;;;;;;;;;;;;21.84;41.69;96102.25;10334782;28;1853;-53
2022/05/07 07:35:26;;;;;;;;;;;;;;;21.84;41.86;96102.25;10336967;28;1829;-51
2022/05/07 07:40:26;;;;;;;;;;;;;;;21.82;41.82;96098.31;10353449;28;1872;-52
2022/05/07 07:50:48;;;;;;;;;;;;;;;21.85;41.49;96110.97;10352031;28;1843;-50
2022/05/07 07:55:48;;;;;;;;;;;;;;;21.85;41.81;96108.31;10337949;28;1870;-51
2022/05/07 08:00:49;;;;;;;;;;;;;;;21.86;41.81;96112.56;10339432;28;1845;-48
2022/05/07 08:05:50;;;;;;;;;;;;;;;21.85;41.77;96113.59;10350606;28;1960;-50
2022/05/07 08:16:10;;;;;;;;;;;;;;;21.86;41.42;96117.84;10355540;28;1797;-53
2022/05/07 08:21:12;;;;;;;;;;;;;;;21.94;41.63;96119.09;10354696;28;1812;-57
2022/05/07 08:26:12;;;;;;;;;;;;;;;22.07;41.16;96126.44;10348016;28;1910;-51
2022/05/07 08:31:13;;;;;;;;;;;;;;;22.20;41.11;96120.50;10333290;28;1798;-58
2022/05/07 08:36:13;;;;;;;;;;;;;;;22.32;40.95;96123.59;10343269;28;2445;-57
2022/05/07 08:41:13;;;;;;;;;;;;;;;22.45;40.33;96128.25;10340509;28;1852;-55
2022/05/07 08:46:16;;;;;;;;;;;;;;;22.52;40.21;96131.38;10319586;28;1906;-53
2022/05/07 08:51:17;;;;;;;;;;;;;;;22.63;40.34;96131.03;10358436;28;1820;-59
2022/05/07 08:56:17;;;;;;;;;;;;;;;22.69;40.16;96136.28;10349424;28;1833;-57
2022/05/07 09:01:17;;;;;;;;;;;;;;;22.79;40.46;96138.84;10333253;28;1818;-54
2022/05/07 09:06:20;;;;;;;;;;;;;;;22.59;41.61;96140.59;10332721;28;1973;-51
2022/05/07 09:11:21;;;;;;;;;;;;;;;22.35;42.39;96134.41;10347761;28;1813;-58
2022/05/07 09:16:22;;;;;;;;;;;;;;;22.18;43.20;96143.75;10348521;28;1864;-58
2022/05/07 09:21:24;;;;;;;;;;;;;;;22.06;43.35;96140.66;10348356;28;1908;-55
2022/05/07 09:26:35;;;;;;;;;;;;;;;22.01;43.27;96138.84;10335139;28;1977;-53
2022/05/07 09:31:37;;;;;;;;;;;;;;;21.96;43.75;96144.16;10326712;28;1988;-57
2022/05/07 09:36:37;;;;;;;;;;;;;;;21.97;43.45;96142.31;10324890;28;1871;-56
2022/05/07 09:41:38;;;;;;;;;;;;;;;22.04;43.14;96140.16;10324599;28;1857;-55
2022/05/07 09:46:38;;;;;;;;;;;;;;;22.23;42.30;96144.53;10330436;28;1906;-54
2022/05/07 09:51:39;;;;;;;;;;;;;;;22.38;41.59;96135.72;10352965;28;1852;-54
2022/05/07 10:02:28;;;;;;;;;;;;;;;22.48;40.83;96127.72;10333022;28;1866;-57
2022/05/07 10:07:38;;;;;;;;;;;;;;;22.58;41.23;96132.94;10311926;28;1980;-55
2022/05/07 10:12:38;;;;;;;;;;;;;;;22.65;42.23;96123.63;10342968;28;1912;-54
2022/05/07 10:17:39;;;;;;;;;;;;;;;22.70;42.84;96125.44;10336669;28;1913;-55
2022/05/07 10:22:39;;;;;;;;;;;;;;;22.69;42.21;96117.81;10336709;28;1858;-54
2022/05/07 10:27:42;;;;;;;;;;;;;;;22.75;42.12;96121.97;10351875;28;1914;-57
2022/05/07 10:32:57;;;;;;;;;;;;;;;22.75;42.99;96119.31;10349799;28;1867;-52
2022/05/07 10:38:04;;;;;;;;;;;;;;;22.77;42.97;96117.19;10333651;28;3069;-52
2022/05/07 10:43:05;;;;;;;;;;;;;;;22.87;41.91;96117.09;10334516;28;2667;-56
2022/05/07 10:48:05;;;;;;;;;;;;;;;22.90;42.67;96113.88;10341095;28;2294;-54
2022/05/07 10:53:05;;;;;;;;;;;;;;;22.82;41.08;96117.94;10307817;28;2286;-57
2022/05/07 10:58:06;;;;;;;;;;;;;;;22.91;41.81;96116.25;10338700;28;1882;-56
2022/05/07 11:03:08;;;;;;;;;;;;;;;22.89;42.15;96114.97;10346579;28;1845;-59
2022/05/07 11:08:09;;;;;;;;;;;;;;;22.89;43.01;96113.13;10345457;28;3098;-59
2022/05/07 11:13:11;;;;;;;;;;;;;;;22.94;42.25;96109.59;10322551;28;2696;-60
2022/05/07 11:18:13;;;;;;;;;;;;;;;22.89;41.80;96099.91;10353968;28;2355;-58
2022/05/07 11:23:13;;;;;;;;;;;;;;;22.86;43.17;96099.66;10332697;28;1887;-58
2022/05/07 11:28:13;;;;;;;;;;;;;;;22.71;43.80;96105.09;10352396;28;2455;-57
2022/05/07 11:33:15;;;;;;;;;;;;;;;22.51;44.07;96106.81;10345591;28;1833;-57
2022/05/07 11:38:15;;;;;;;;;;;;;;;22.35;44.15;96105.34;10334677;28;1842;-57
2022/05/07 11:48:40;;;;;;;;;;;;;;;22.17;44.58;96099.94;10372556;28;2082;-56
2022/05/07 11:53:40;;;;;;;;;;;;;;;22.10;44.60;96100.25;10354893;28;2278;-57
2022/05/07 11:58:41;;;;;;;;;;;;;;;21.96;44.99;96094.00;10375111;28;1970;-55
2022/05/07 12:03:42;;;;;;;;;;;;;;;22.01;44.94;96083.41;10352684;28;2186;-57
2022/05/07 12:08:42;;;;;;;;;;;;;;;22.07;44.54;96082.31;10351374;28;3195;-57
2022/05/07 12:13:44;;;;;;;;;;;;;;;22.14;44.31;96074.09;10362806;28;3027;-59
2022/05/07 12:18:49;;;;;;;;;;;;;;;22.13;44.39;96068.03;10371610;28;2372;-59
2022/05/07 12:34:27;;;;;;;;;;;;;;;22.19;44.32;96066.94;10350735;28;1745;-56
2022/05/07 12:39:28;;;;;;;;;;;;;;;22.25;43.94;96068.47;10348534;28;1797;-58
2022/05/07 12:44:28;;;;;;;;;;;;;;;22.24;43.78;96063.44;10347144;28;2243;-56
2022/05/07 12:49:29;;;;;;;;;;;;;;;22.12;43.59;96060.38;10346613;28;1875;-57
2022/05/07 12:54:29;;;;;;;;;;;;;;;22.07;43.64;96058.53;10325439;28;1942;-57
2022/05/07 12:59:30;;;;;;;;;;;;;;;22.09;43.64;96058.28;10345826;28;1896;-57
2022/05/07 13:04:32;;;;;;;;;;;;;;;22.14;43.72;96055.59;10350821;28;1906;-58
2022/05/07 13:09:33;;;;;;;;;;;;;;;22.16;44.00;96051.63;10351114;28;1903;-55
2022/05/07 13:14:35;;;;;;;;;;;;;;;22.21;43.58;96051.59;10337325;28;1801;-57
2022/05/07 13:19:36;;;;;;;;;;;;;;;22.23;43.59;96040.75;10335050;28;1920;-55
2022/05/07 13:24:36;;;;;;;;;;;;;;;22.23;43.36;96041.56;10335027;28;1906;-55
2022/05/07 13:29:37;;;;;;;;;;;;;;;22.29;43.23;96039.66;10333966;28;1945;-57
2022/05/07 13:34:37;;;;;;;;;;;;;;;22.30;43.41;96031.44;10328718;28;1843;-58
2022/05/07 13:39:41;;;;;;;;;;;;;;;22.25;43.64;96034.13;10361639;28;1851;-57
2022/05/07 13:44:41;;;;;;;;;;;;;;;22.21;43.66;96027.03;10340865;28;2309;-54
2022/05/07 13:49:42;;;;;;;;;;;;;;;22.16;43.77;96025.22;10350951;28;1829;-57
2022/05/07 13:54:42;;;;;;;;;;;;;;;22.14;43.34;96022.06;10348957;28;1841;-54
2022/05/07 13:59:42;;;;;;;;;;;;;;;22.11;43.71;96024.50;10346842;28;2074;-56
2022/05/07 14:04:43;;;;;;;;;;;;;;;22.07;43.52;96013.66;10356191;28;2102;-56
2022/05/07 14:09:47;;;;;;;;;;;;;;;22.07;43.51;96010.25;10337222;28;2189;-58
2022/05/07 14:14:47;;;;;;;;;;;;;;;22.03;42.84;96015.28;10342364;28;2240;-54
2022/05/07 14:19:49;;;;;;;;;;;;;;;22.03;43.17;96017.94;10334620;28;1916;-55
2022/05/07 14:24:50;;;;;;;;;;;;;;;22.06;43.86;96019.22;10354902;28;2201;-56
2022/05/07 14:29:51;;;;;;;;;;;;;;;22.03;43.69;96006.59;10357728;28;2153;-56
2022/05/07 14:34:51;;;;;;;;;;;;;;;22.01;43.97;96020.06;10353654;28;1875;-52
2022/05/07 14:39:52;;;;;;;;;;;;;;;21.98;43.47;96023.25;10356498;28;1808;-54
2022/05/07 14:44:53;;;;;;;;;;;;;;;21.98;43.34;96022.47;10373684;28;1910;-55
2022/05/07 14:49:53;;;;;;;;;;;;;;;22.04;42.79;96021.38;10344191;28;1825;-53
2022/05/07 14:54:54;;;;;;;;;;;;;;;22.06;43.06;96022.66;10348685;28;1869;-55
2022/05/07 14:59:54;;;;;;;;;;;;;;;22.04;42.65;96024.78;10347064;28;1822;-56
2022/05/07 15:04:55;;;;;;;;;;;;;;;22.02;42.94;96024.28;10364668;28;2019;-57
2022/05/07 15:15:15;;;;;;;;;;;;;;;22.03;43.30;96025.06;10350766;28;1836;-56
2022/05/07 15:20:15;;;;;;;;;;;;;;;22.02;43.33;96021.66;10334213;28;1805;-56
2022/05/07 15:25:18;;;;;;;;;;;;;;;22.03;43.63;96023.19;10346744;28;2063;-56
2022/05/07 15:30:18;;;;;;;;;;;;;;;22.03;43.69;96019.81;10331863;28;1824;-57
2022/05/07 15:40:38;;;;;;;;;;;;;;;22.02;43.69;96019.00;10353246;28;1808;-53
2022/05/07 15:45:38;;;;;;;;;;;;;;;22.01;44.08;96025.34;10335839;28;1906;-56
2022/05/07 15:50:39;;;;;;;;;;;;;;;22.01;44.30;96014.78;10339186;28;1831;-57
2022/05/07 15:55:39;;;;;;;;;;;;;;;21.99;44.51;96016.91;10336396;28;1753;-53
2022/05/07 16:00:39;;;;;;;;;;;;;;;21.97;44.41;96024.31;10352111;28;1928;-53
2022/05/07 16:05:40;;;;;;;;;;;;;;;21.97;44.50;96029.59;10354078;28;1973;-53
2022/05/07 16:10:42;;;;;;;;;;;;;;;21.95;44.29;96021.16;10347905;28;1804;-57
2022/05/07 16:15:43;;;;;;;;;;;;;;;21.95;44.11;96025.66;10352994;28;1816;-55
2022/05/07 16:20:44;;;;;;;;;;;;;;;21.92;44.28;96013.81;10342687;28;1787;-55
2022/05/07 16:25:45;;;;;;;;;;;;;;;21.92;44.20;96021.72;10347632;28;1910;-54
2022/05/07 16:30:46;;;;;;;;;;;;;;;21.92;44.15;96018.28;10338679;28;2144;-58
2022/05/07 16:35:46;;;;;;;;;;;;;;;21.88;44.38;96018.06;10334783;28;1824;-57
2022/05/07 16:40:47;;;;;;;;;;;;;;;21.86;44.38;96009.63;10335089;28;1840;-55
2022/05/07 16:45:48;;;;;;;;;;;;;;;21.87;44.37;96011.19;10356004;28;1906;-56
2022/05/07 16:50:49;;;;;;;;;;;;;;;21.86;44.32;96005.13;10333426;28;3289;-55
2022/05/07 16:55:49;;;;;;;;;;;;;;;21.85;44.18;96002.75;10330423;28;1855;-56
2022/05/07 17:00:49;;;;;;;;;;;;;;;21.83;44.29;96007.53;10333018;28;1828;-57
2022/05/07 17:05:50;;;;;;;;;;;;;;;21.80;44.20;96010.69;10353114;28;1902;-57
2022/05/07 17:10:51;;;;;;;;;;;;;;;21.85;44.84;96015.97;10356414;28;2315;-58
2022/05/07 17:16:11;;;;;;;;;;;;;;;21.83;44.95;96018.09;10361593;28;1832;-56
2022/05/07 17:21:12;;;;;;;;;;;;;;;21.79;44.70;96024.94;10352128;28;1848;-56
2022/05/07 17:26:13;;;;;;;;;;;;;;;21.77;44.92;96027.06;10339275;28;4254;-53
2022/05/07 17:31:13;;;;;;;;;;;;;;;21.75;44.65;96034.47;10330466;28;4593;-57
2022/05/07 17:36:13;;;;;;;;;;;;;;;21.73;44.33;96031.31;10350625;28;4421;-57
2022/05/07 17:41:14;;;;;;;;;;;;;;;21.73;44.80;96031.31;10340002;28;1848;-56
2022/05/07 17:46:14;;;;;;;;;;;;;;;21.75;44.63;96043.19;10333432;28;1922;-56
2022/05/07 17:51:15;;;;;;;;;;;;;;;21.75;44.46;96045.81;10350321;28;1800;-58
2022/05/07 17:56:15;;;;;;;;;;;;;;;21.75;44.51;96042.38;10334680;28;1745;-51
2022/05/07 18:01:16;;;;;;;;;;;;;;;21.77;44.73;96040.25;10337379;28;1587;-56
2022/05/07 18:06:16;;;;;;;;;;;;;;;21.80;44.44;96045.78;10350661;28;1906;-56
2022/05/07 18:11:16;;;;;;;;;;;;;;;21.80;44.57;96047.66;10332480;28;2113;-56
2022/05/07 18:16:17;;;;;;;;;;;;;;;21.84;44.25;96053.97;10352241;28;1757;-54
2022/05/07 18:21:17;;;;;;;;;;;;;;;21.81;44.36;96046.56;10352196;28;1791;-54
2022/05/07 18:26:18;;;;;;;;;;;;;;;21.83;44.24;96047.13;10328402;28;4367;-56
2022/05/07 18:31:18;;;;;;;;;;;;;;;21.82;44.06;96051.59;10330338;28;1833;-55
2022/05/07 18:46:59;;;;;;;;;;;;;;;21.88;43.46;96056.84;10340200;28;1914;-57
2022/05/07 18:52:00;;;;;;;;;;;;;;;21.87;43.84;96066.63;10357518;28;1863;-54
2022/05/07 19:02:19;;;;;;;;;;;;;;;21.90;43.86;96068.72;10342371;28;1880;-56
2022/05/07 19:07:19;;;;;;;;;;;;;;;21.90;43.78;96063.44;10336619;28;1910;-58
2022/05/07 19:12:20;;;;;;;;;;;;;;;21.90;43.73;96074.00;10353927;28;2141;-55
2022/05/07 19:17:20;;;;;;;;;;;;;;;21.88;43.92;96070.84;10358719;28;1828;-58
2022/05/07 19:22:21;;;;;;;;;;;;;;;21.89;43.91;96072.41;10357059;28;1760;-54
2022/05/07 19:27:22;;;;;;;;;;;;;;;21.91;43.79;96072.16;10346818;28;4175;-55
2022/05/07 19:32:22;;;;;;;;;;;;;;;21.88;43.78;96073.47;10355740;28;1836;-58
2022/05/07 19:37:24;;;;;;;;;;;;;;;21.88;44.08;96078.75;10338178;28;1912;-56
2022/05/07 19:42:24;;;;;;;;;;;;;;;21.88;43.72;96076.13;10337525;28;1841;-54
2022/05/07 19:47:25;;;;;;;;;;;;;;;21.88;43.65;96086.69;10334176;28;1973;-58
2022/05/07 19:52:26;;;;;;;;;;;;;;;21.88;43.61;96086.69;10348370;28;1890;-54
2022/05/07 19:57:26;;;;;;;;;;;;;;;21.89;43.42;96088.25;10338451;28;1749;-56
2022/05/07 20:02:26;;;;;;;;;;;;;;;21.90;43.48;96089.84;10354222;28;1900;-56
2022/05/07 20:07:27;;;;;;;;;;;;;;;21.90;43.37;96095.13;10351420;28;1907;-55
2022/05/07 20:12:28;;;;;;;;;;;;;;;21.91;43.54;96086.13;10336439;28;1835;-52
2022/05/07 20:17:28;;;;;;;;;;;;;;;21.89;43.53;96093.53;10344076;28;1954;-54
2022/05/07 20:22:30;;;;;;;;;;;;;;;21.92;43.49;96100.09;10341310;28;1794;-55
2022/05/07 20:27:31;;;;;;;;;;;;;;;21.90;43.63;96092.47;10340564;28;4139;-56
2022/05/07 20:32:32;;;;;;;;;;;;;;;21.91;43.51;96096.69;10357603;28;1859;-54
2022/05/07 20:37:34;;;;;;;;;;;;;;;21.92;43.77;96090.34;10376130;28;1808;-55
2022/05/07 20:42:34;;;;;;;;;;;;;;;21.91;43.66;96099.31;10353494;28;1771;-56
2022/05/07 20:47:36;;;;;;;;;;;;;;;21.93;43.47;96094.56;10333194;28;1918;-55
2022/05/07 20:52:36;;;;;;;;;;;;;;;21.96;43.49;96096.66;10349578;28;4177;-57
2022/05/07 20:57:36;;;;;;;;;;;;;;;21.95;43.48;96094.31;10355778;28;1766;-53
2022/05/07 21:02:37;;;;;;;;;;;;;;;21.95;43.62;96102.22;10330460;28;1840;-56
2022/05/07 21:07:37;;;;;;;;;;;;;;;21.95;43.50;96108.25;10336951;28;1902;-56
2022/05/07 21:12:37;;;;;;;;;;;;;;;21.94;43.49;96104.06;10340931;28;2393;-57
2022/05/07 21:17:38;;;;;;;;;;;;;;;21.91;43.92;96107.22;10333702;28;1772;-53
2022/05/07 21:22:38;;;;;;;;;;;;;;;21.91;43.65;96101.94;10352174;28;1836;-56
2022/05/07 21:27:42;;;;;;;;;;;;;;;21.91;43.71;96106.47;10350062;28;4197;-53
2022/05/07 21:32:42;;;;;;;;;;;;;;;21.89;43.66;96109.34;10352447;28;2192;-55
2022/05/07 21:37:43;;;;;;;;;;;;;;;21.85;43.74;96111.75;10335476;28;1841;-56
2022/05/07 21:42:43;;;;;;;;;;;;;;;21.85;43.74;96108.31;10334143;28;1818;-57
2022/05/07 21:47:44;;;;;;;;;;;;;;;21.82;43.55;96112.28;10343188;28;1975;-57
2022/05/07 21:52:44;;;;;;;;;;;;;;;21.81;43.61;96117.81;10345943;28;1904;-54
2022/05/07 21:57:44;;;;;;;;;;;;;;;21.79;43.78;96112.81;10349351;28;2053;-57
2022/05/07 22:02:45;;;;;;;;;;;;;;;21.79;43.71;96115.47;10335445;28;2263;-54
2022/05/07 22:07:45;;;;;;;;;;;;;;;21.77;43.46;96109.66;10331032;28;1902;-57
2022/05/07 22:12:45;;;;;;;;;;;;;;;21.78;43.57;96110.47;10337154;28;1940;-54
2022/05/07 22:17:46;;;;;;;;;;;;;;;21.77;43.42;96111.50;10340353;28;1977;-58
2022/05/07 22:22:47;;;;;;;;;;;;;;;21.77;43.68;96111.50;10335761;28;1810;-53
2022/05/07 22:27:47;;;;;;;;;;;;;;;21.76;43.45;96116.00;10340213;28;4155;-56
2022/05/07 22:32:48;;;;;;;;;;;;;;;21.77;43.47;96116.78;10347374;28;1865;-53
2022/05/07 22:37:49;;;;;;;;;;;;;;;21.79;43.50;96114.66;10355896;28;1899;-56
2022/05/07 22:42:50;;;;;;;;;;;;;;;21.78;43.17;96115.75;10357826;28;1870;-55
2022/05/07 22:47:50;;;;;;;;;;;;;;;21.78;43.19;96113.88;10361240;28;1906;-56
2022/05/07 22:52:50;;;;;;;;;;;;;;;21.78;43.36;96118.38;10356339;28;1859;-57
2022/05/07 22:57:51;;;;;;;;;;;;;;;21.77;43.22;96117.59;10361884;28;1882;-55
2022/05/07 23:02:52;;;;;;;;;;;;;;;21.78;43.07;96115.75;10358394;28;1785;-56
2022/05/07 23:07:52;;;;;;;;;;;;;;;21.79;43.16;96114.66;10357263;28;2048;-54
2022/05/07 23:12:53;;;;;;;;;;;;;;;21.80;43.29;96117.03;10351591;28;1972;-56
2022/05/07 23:17:53;;;;;;;;;;;;;;;21.74;43.11;96115.47;10344928;28;1873;-57
2022/05/07 23:22:53;;;;;;;;;;;;;;;21.75;43.19;96111.78;10346021;28;1898;-57
2022/05/07 23:27:54;;;;;;;;;;;;;;;21.77;43.23;96114.16;10338219;28;4091;-51
2022/05/07 23:32:55;;;;;;;;;;;;;;;21.76;43.21;96107.31;10341070;28;1952;-55
2022/05/07 23:37:55;;;;;;;;;;;;;;;21.76;43.00;96109.94;10339574;28;2008;-57
2022/05/07 23:42:55;;;;;;;;;;;;;;;21.77;42.90;96106.22;10361119;28;1836;-58
2022/05/07 23:47:56;;;;;;;;;;;;;;;21.78;42.87;96105.19;10342356;28;1969;-55
2022/05/07 23:52:56;;;;;;;;;;;;;;;21.79;42.78;96106.75;10341188;28;1813;-56
2022/05/07 23:57:58;;;;;;;;;;;;;;;21.79;43.09;96094.34;10340258;28;2102;-57
